Time;durP1;ratioP1;P1;durP2;ratioP2;P2;SDS_P1;SDS_P2;PMS_P1;PMS_P2;Temp;Humidity;BMP_temperature;BMP_pressure;BME280_temperature;BME280_humidity;BME280_pressure;Samples;Min_cycle;Max_cycle;Signal;HPM_P1;HPM_P2
2021/09/01 00:00:46;;;;;;;;;;;;;;;16.09;100.00;100096.66;4994398;28;19925;-78
2021/09/01 00:03:11;;;;;;;;;;;;;;;16.43;100.00;100104.00;4993742;28;19917;-78
2021/09/01 00:05:37;;;;;;;;;;;;;;;16.58;100.00;100106.91;4991415;28;19921;-77
2021/09/01 00:08:02;;;;;;;;;;;;;;;16.17;100.00;100117.16;4995504;28;19922;-78
2021/09/01 00:10:27;;;;;;;;;;;;;;;16.51;100.00;100106.31;4994030;28;19922;-77
2021/09/01 00:12:53;;;;;;;;;;;;;;;16.41;100.00;100105.00;4999419;28;20019;-78
2021/09/01 00:15:18;;;;;;;;;;;;;;;16.59;100.00;100109.47;4993686;28;20526;-78
2021/09/01 00:17:43;;;;;;;;;;;;;;;16.12;100.00;100112.13;4992907;28;20063;-78
2021/09/01 00:20:09;;;;;;;;;;;;;;;16.01;100.00;100111.66;4994702;28;20009;-77
2021/09/01 00:22:34;;;;;;;;;;;;;;;15.99;100.00;100126.50;4999806;28;19924;-77
2021/09/01 00:25:00;;;;;;;;;;;;;;;16.58;100.00;100114.72;4991375;28;19976;-77
2021/09/01 00:27:25;;;;;;;;;;;;;;;16.20;100.00;100117.88;4994068;28;20429;-78
2021/09/01 00:29:51;;;;;;;;;;;;;;;16.60;100.00;100111.16;4993725;28;19932;-78
2021/09/01 00:32:16;;;;;;;;;;;;;;;16.71;100.00;100108.97;4999532;28;19917;-78
2021/09/01 00:34:41;;;;;;;;;;;;;;;16.47;100.00;100109.97;5007174;28;19918;-77
2021/09/01 00:37:06;;;;;;;;;;;;;;;16.58;100.00;100112.13;4994854;28;19924;-77
2021/09/01 00:39:32;;;;;;;;;;;;;;;16.93;100.00;100103.81;4990477;28;19926;-78
2021/09/01 00:41:58;;;;;;;;;;;;;;;16.64;100.00;100102.31;4995229;28;19930;-78
2021/09/01 00:44:25;;;;;;;;;;;;;;;16.31;100.00;100107.94;4991928;28;19993;-78
2021/09/01 00:46:51;;;;;;;;;;;;;;;16.79;100.00;100105.25;4998489;28;19921;-77
2021/09/01 00:49:16;;;;;;;;;;;;;;;16.45;100.00;100111.78;4993531;28;19925;-77
2021/09/01 00:51:42;;;;;;;;;;;;;;;16.31;100.00;100115.75;4993335;28;19921;-77
2021/09/01 00:54:08;;;;;;;;;;;;;;;16.27;100.00;100124.56;4992969;28;19976;-78
2021/09/01 00:56:34;;;;;;;;;;;;;;;16.37;100.00;100114.63;4992575;28;19945;-78
2021/09/01 00:58:59;;;;;;;;;;;;;;;16.54;100.00;100116.63;5007160;28;19926;-78
2021/09/01 01:01:24;;;;;;;;;;;;;;;16.23;100.00;100112.56;4991377;28;19928;-77
2021/09/01 01:03:50;;;;;;;;;;;;;;;16.38;100.00;100118.13;4993511;28;19941;-78
2021/09/01 01:06:20;;;;;;;;;;;;;;;16.57;100.00;100110.44;4992578;28;19931;-77
2021/09/01 01:08:46;;;;;;;;;;;;;;;16.45;100.00;100117.81;4999915;28;19932;-77
2021/09/01 01:11:12;;;;;;;;;;;;;;;16.15;100.00;100108.56;4990496;28;19932;-77
2021/09/01 01:13:38;;;;;;;;;;;;;;;17.06;100.00;100109.38;4990060;28;19926;-77
2021/09/01 01:16:03;;;;;;;;;;;;;;;16.77;100.00;100114.88;4990705;28;19924;-78
2021/09/01 01:18:30;;;;;;;;;;;;;;;16.97;100.00;100117.56;4987798;28;20661;-77
2021/09/01 01:20:55;;;;;;;;;;;;;;;16.47;100.00;100104.75;4998643;28;19925;-77
2021/09/01 01:23:24;;;;;;;;;;;;;;;16.73;100.00;100106.31;4989500;28;19917;-78
2021/09/01 01:25:52;;;;;;;;;;;;;;;16.45;100.00;100112.59;4989684;28;19928;-78
2021/09/01 01:28:18;;;;;;;;;;;;;;;16.42;100.00;100115.34;4994812;28;19918;-77
2021/09/01 01:30:43;;;;;;;;;;;;;;;17.11;100.00;100107.41;4991146;28;19933;-77
2021/09/01 01:33:09;;;;;;;;;;;;;;;16.76;100.00;100111.41;4991847;28;19972;-77
2021/09/01 01:35:35;;;;;;;;;;;;;;;17.13;100.00;100105.59;4992067;28;20012;-77
2021/09/01 01:38:02;;;;;;;;;;;;;;;17.21;100.00;100107.88;4995390;28;19922;-78
2021/09/01 01:40:27;;;;;;;;;;;;;;;17.14;100.00;100106.44;4974942;28;20675;-77
2021/09/01 01:42:55;;;;;;;;;;;;;;;17.17;100.00;100100.25;4991385;28;19922;-78
2021/09/01 01:45:22;;;;;;;;;;;;;;;17.23;100.00;100094.81;4992185;28;20476;-77
2021/09/01 01:47:47;;;;;;;;;;;;;;;17.30;100.00;100096.22;4993352;28;20363;-78
2021/09/01 01:50:13;;;;;;;;;;;;;;;17.24;100.00;100086.94;4991936;28;19918;-77
2021/09/01 01:52:38;;;;;;;;;;;;;;;17.36;100.00;100088.16;4997736;28;19925;-77
2021/09/01 01:55:04;;;;;;;;;;;;;;;17.07;100.00;100090.22;4998179;28;19976;-77
2021/09/01 01:57:29;;;;;;;;;;;;;;;17.02;100.00;100089.56;4992813;28;19921;-77
2021/09/01 01:59:55;;;;;;;;;;;;;;;16.95;100.00;100089.91;4992334;28;19918;-78
2021/09/01 02:02:20;;;;;;;;;;;;;;;16.78;100.00;100098.34;4991104;28;19929;-78
2021/09/01 02:04:45;;;;;;;;;;;;;;;17.12;100.00;100077.84;4994131;28;20401;-78
2021/09/01 02:07:11;;;;;;;;;;;;;;;16.63;100.00;100090.25;4992699;28;19917;-78
2021/09/01 02:09:36;;;;;;;;;;;;;;;16.37;100.00;100087.81;4991122;28;20355;-78
2021/09/01 02:12:01;;;;;;;;;;;;;;;16.48;100.00;100080.44;4991213;28;19992;-77
2021/09/01 02:14:27;;;;;;;;;;;;;;;16.40;100.00;100087.69;4990500;28;19980;-77
2021/09/01 02:16:52;;;;;;;;;;;;;;;16.53;100.00;100088.91;4991220;28;19925;-77
2021/09/01 02:19:17;;;;;;;;;;;;;;;16.20;100.00;100091.91;4994493;28;19953;-78
2021/09/01 02:21:42;;;;;;;;;;;;;;;16.39;100.00;100093.78;4993154;28;19921;-78
2021/09/01 02:24:08;;;;;;;;;;;;;;;16.80;100.00;100081.78;4992566;28;20312;-78
2021/09/01 02:26:33;;;;;;;;;;;;;;;16.82;100.00;100087.78;4998431;28;19918;-78
2021/09/01 02:28:58;;;;;;;;;;;;;;;16.80;100.00;100083.56;4997655;28;19926;-78
2021/09/01 02:31:24;;;;;;;;;;;;;;;16.97;100.00;100088.06;4996507;28;19917;-78
2021/09/01 02:33:49;;;;;;;;;;;;;;;16.77;100.00;100091.47;4996020;28;20510;-77
2021/09/01 02:36:14;;;;;;;;;;;;;;;16.75;100.00;100088.06;4995934;28;19956;-77
2021/09/01 02:38:43;;;;;;;;;;;;;;;17.02;100.00;100089.56;4993314;28;19933;-77
2021/09/01 02:41:09;;;;;;;;;;;;;;;16.80;100.00;100092.19;5003886;28;20008;-77
2021/09/01 02:43:34;;;;;;;;;;;;;;;16.69;100.00;100095.22;4997455;28;19981;-77
2021/09/01 02:46:00;;;;;;;;;;;;;;;16.66;100.00;100104.88;5010489;28;19983;-77
2021/09/01 02:48:25;;;;;;;;;;;;;;;16.41;100.00;100102.38;4992604;28;19917;-78
2021/09/01 02:50:52;;;;;;;;;;;;;;;16.57;100.00;100102.66;4994837;28;19925;-77
2021/09/01 02:53:18;;;;;;;;;;;;;;;16.93;100.00;100103.81;4991907;28;19918;-78
2021/09/01 02:55:43;;;;;;;;;;;;;;;16.95;100.00;100101.16;4994375;28;19918;-78
2021/09/01 02:58:08;;;;;;;;;;;;;;;17.16;100.00;100098.56;4994418;28;20312;-77
2021/09/01 03:00:34;;;;;;;;;;;;;;;17.32;100.00;100102.22;4995647;28;19917;-77
2021/09/01 03:02:59;;;;;;;;;;;;;;;16.88;100.00;100104.91;5002079;28;19944;-77
2021/09/01 03:05:24;;;;;;;;;;;;;;;16.81;100.00;100098.25;4994672;28;19929;-77
2021/09/01 03:07:50;;;;;;;;;;;;;;;16.70;100.00;100101.25;5011071;28;19992;-77
2021/09/01 03:10:15;;;;;;;;;;;;;;;17.07;100.00;100099.78;5008575;28;19982;-78
2021/09/01 03:12:40;;;;;;;;;;;;;;;17.17;100.00;100095.06;5008182;28;20349;-77
2021/09/01 03:15:06;;;;;;;;;;;;;;;17.17;100.00;100095.06;5006681;28;19918;-77
2021/09/01 03:17:31;;;;;;;;;;;;;;;17.08;100.00;100081.53;4989831;28;19924;-77
2021/09/01 03:19:56;;;;;;;;;;;;;;;17.09;100.00;100074.56;5007318;28;20448;-78
2021/09/01 03:22:21;;;;;;;;;;;;;;;17.28;100.00;100079.81;4989669;28;19922;-77
2021/09/01 03:24:47;;;;;;;;;;;;;;;17.42;100.00;100074.88;4993834;28;20875;-77
2021/09/01 03:27:12;;;;;;;;;;;;;;;17.56;100.00;100080.34;5008159;28;19918;-77
2021/09/01 03:29:37;;;;;;;;;;;;;;;17.59;100.00;100075.91;4993740;28;20329;-77
2021/09/01 03:32:03;;;;;;;;;;;;;;;17.44;100.00;100083.47;4992151;28;19917;-77
2021/09/01 03:34:28;;;;;;;;;;;;;;;17.29;100.00;100076.31;5000856;28;20006;-77
2021/09/01 03:36:53;;;;;;;;;;;;;;;17.31;100.00;100087.50;5011798;28;19983;-77
2021/09/01 03:39:19;;;;;;;;;;;;;;;17.08;100.00;100081.53;4996867;28;19918;-77
2021/09/01 03:41:44;;;;;;;;;;;;;;;17.05;100.00;100084.22;4997670;28;19975;-77
2021/09/01 03:44:09;;;;;;;;;;;;;;;17.09;100.00;100085.81;4996264;28;19925;-77
2021/09/01 03:46:35;;;;;;;;;;;;;;;17.10;100.00;100079.69;4994089;28;19972;-77
2021/09/01 03:49:00;;;;;;;;;;;;;;;17.00;100.00;100082.75;5010513;28;19921;-77
2021/09/01 03:51:25;;;;;;;;;;;;;;;17.01;100.00;100090.47;5000261;28;19920;-77
2021/09/01 03:53:51;;;;;;;;;;;;;;;16.87;100.00;100096.25;4994849;28;20336;-77
2021/09/01 03:56:16;;;;;;;;;;;;;;;16.72;100.00;100099.44;4997771;28;20377;-78
2021/09/01 03:58:41;;;;;;;;;;;;;;;17.04;100.00;100090.38;4995580;28;19924;-77
2021/09/01 04:01:07;;;;;;;;;;;;;;;17.20;100.00;100089.75;4996353;28;19928;-77
2021/09/01 04:03:32;;;;;;;;;;;;;;;17.13;100.00;100095.19;5000683;28;19968;-77
2021/09/01 04:05:57;;;;;;;;;;;;;;;17.24;100.00;100093.88;4996383;28;19922;-79
2021/09/01 04:08:23;;;;;;;;;;;;;;;17.44;100.00;100093.03;5011739;28;20699;-80
2021/09/01 04:10:48;;;;;;;;;;;;;;;17.38;100.00;100091.56;4996188;28;19968;-79
2021/09/01 04:13:13;;;;;;;;;;;;;;;17.18;100.00;100101.97;4995474;28;19996;-79
2021/09/01 04:15:39;;;;;;;;;;;;;;;17.09;100.00;100109.22;4998594;28;19922;-78
2021/09/01 04:18:04;;;;;;;;;;;;;;;16.90;100.00;100103.06;4996579;28;19920;-78
2021/09/01 04:20:29;;;;;;;;;;;;;;;16.86;100.00;100111.94;4997880;28;19945;-78
2021/09/01 04:22:55;;;;;;;;;;;;;;;16.86;100.00;100111.94;4993737;28;19925;-78
2021/09/01 04:25:20;;;;;;;;;;;;;;;17.04;100.00;100110.34;5004231;28;19972;-77
2021/09/01 04:27:46;;;;;;;;;;;;;;;17.09;100.00;100111.84;4996362;28;19922;-78
2021/09/01 04:30:11;;;;;;;;;;;;;;;17.30;100.00;100117.06;4994853;28;19929;-78
2021/09/01 04:32:36;;;;;;;;;;;;;;;16.88;100.00;100115.31;4993884;28;19925;-77
2021/09/01 04:35:02;;;;;;;;;;;;;;;16.84;100.00;100113.75;4996704;28;19929;-77
2021/09/01 04:37:27;;;;;;;;;;;;;;;16.68;100.00;100129.91;4995077;28;19917;-77
2021/09/01 04:39:52;;;;;;;;;;;;;;;16.68;100.00;100124.72;5003319;28;19914;-77
2021/09/01 04:42:18;;;;;;;;;;;;;;;16.65;100.00;100127.44;4993782;28;20394;-77
2021/09/01 04:44:43;;;;;;;;;;;;;;;16.57;100.00;100132.09;4996915;28;19914;-77
2021/09/01 04:47:08;;;;;;;;;;;;;;;16.24;100.00;100129.03;4994042;28;19949;-77
2021/09/01 04:49:34;;;;;;;;;;;;;;;16.12;100.00;100134.66;4991594;28;19917;-78
2021/09/01 04:51:59;;;;;;;;;;;;;;;16.52;100.00;100134.03;4994091;28;19925;-77
2021/09/01 04:54:25;;;;;;;;;;;;;;;16.51;100.00;100132.31;4996215;28;19917;-78
2021/09/01 04:56:50;;;;;;;;;;;;;;;16.43;100.00;100135.22;4992193;28;19921;-78
2021/09/01 04:59:15;;;;;;;;;;;;;;;16.27;100.00;100134.94;4989803;28;19917;-77
2021/09/01 05:01:41;;;;;;;;;;;;;;;16.24;100.00;100135.06;4997259;28;20407;-78
2021/09/01 05:04:06;;;;;;;;;;;;;;;15.97;100.00;100138.69;4993682;28;19917;-77
2021/09/01 05:06:31;;;;;;;;;;;;;;;16.23;100.00;100143.75;4993986;28;20384;-77
2021/09/01 05:08:57;;;;;;;;;;;;;;;16.12;100.00;100145.91;4994780;28;19924;-78
2021/09/01 05:11:22;;;;;;;;;;;;;;;16.05;100.00;100147.03;4995613;28;20000;-77
2021/09/01 05:13:48;;;;;;;;;;;;;;;16.41;100.00;100149.19;4990746;28;19941;-77
2021/09/01 05:16:13;;;;;;;;;;;;;;;15.87;100.00;100152.00;4987454;28;19927;-77
2021/09/01 05:18:39;;;;;;;;;;;;;;;16.05;100.00;100165.22;4992252;28;19921;-77
2021/09/01 05:21:04;;;;;;;;;;;;;;;15.83;100.00;100155.59;4976069;28;19922;-78
2021/09/01 05:23:30;;;;;;;;;;;;;;;15.89;100.00;100160.56;4991696;28;19918;-77
2021/09/01 05:26:00;;;;;;;;;;;;;;;15.82;100.00;100164.28;4991631;28;19971;-77
2021/09/01 05:28:26;;;;;;;;;;;;;;;15.72;100.00;100173.31;4992863;28;20483;-78
2021/09/01 05:30:52;;;;;;;;;;;;;;;15.87;100.00;100167.59;5009838;28;19918;-78
2021/09/01 05:33:18;;;;;;;;;;;;;;;16.04;100.00;100169.56;4999540;28;19964;-78
2021/09/01 05:35:44;;;;;;;;;;;;;;;16.28;100.00;100161.78;4994416;28;20032;-78
2021/09/01 05:38:09;;;;;;;;;;;;;;;16.59;100.00;100156.28;4993203;28;20412;-78
2021/09/01 05:40:35;;;;;;;;;;;;;;;16.53;100.00;100156.50;4991345;28;19917;-78
2021/09/01 05:43:00;;;;;;;;;;;;;;;16.37;100.00;100155.41;4993796;28;20558;-78
2021/09/01 05:45:26;;;;;;;;;;;;;;;16.19;100.00;100162.97;4989677;28;19924;-78
2021/09/01 05:47:51;;;;;;;;;;;;;;;16.35;100.00;100167.59;4993495;28;19918;-77
2021/09/01 05:50:17;;;;;;;;;;;;;;;16.42;100.00;100169.06;4992177;28;19922;-77
2021/09/01 05:52:42;;;;;;;;;;;;;;;16.80;100.00;100164.19;4992280;28;19917;-77
2021/09/01 05:55:10;;;;;;;;;;;;;;;16.30;100.00;100171.22;5000271;28;20065;-77
2021/09/01 05:57:37;;;;;;;;;;;;;;;16.73;100.00;100169.59;4994994;28;19913;-77
2021/09/01 06:00:09;;;;;;;;;;;;;;;16.15;100.00;100166.59;4995341;28;19917;-77
2021/09/01 06:02:42;;;;;;;;;;;;;;;16.55;100.00;100159.91;4994970;28;19924;-77
2021/09/01 06:05:08;;;;;;;;;;;;;;;16.20;100.00;100161.22;4992906;28;19917;-77
2021/09/01 06:07:34;;;;;;;;;;;;;;;16.69;100.00;100170.66;5000772;28;20376;-77
2021/09/01 06:09:59;;;;;;;;;;;;;;;16.61;100.00;100172.69;4995550;28;20032;-77
2021/09/01 06:12:25;;;;;;;;;;;;;;;17.07;100.00;100157.91;4990973;28;19977;-77
2021/09/01 06:14:51;;;;;;;;;;;;;;;16.86;100.00;100161.38;4995054;28;20017;-78
2021/09/01 06:17:16;;;;;;;;;;;;;;;16.56;100.00;100171.16;4992792;28;19924;-77
2021/09/01 06:19:41;;;;;;;;;;;;;;;16.47;100.00;100170.59;5007349;28;19921;-78
2021/09/01 06:22:07;;;;;;;;;;;;;;;16.48;100.00;100168.84;4993717;28;19917;-78
2021/09/01 06:24:32;;;;;;;;;;;;;;;16.11;100.00;100172.81;4992702;28;19925;-77
2021/09/01 06:26:58;;;;;;;;;;;;;;;17.20;100.00;100162.63;4991826;28;19948;-78
2021/09/01 06:29:24;;;;;;;;;;;;;;;16.47;100.00;100162.81;4992543;28;20394;-76
2021/09/01 06:31:49;;;;;;;;;;;;;;;16.80;100.00;100162.44;4993088;28;19918;-77
2021/09/01 06:34:15;;;;;;;;;;;;;;;16.24;100.00;100168.84;4998236;28;19914;-77
2021/09/01 06:36:40;;;;;;;;;;;;;;;17.13;100.00;100156.81;4994362;28;19917;-77
2021/09/01 06:39:05;;;;;;;;;;;;;;;17.17;100.00;100160.13;4996008;28;19924;-79
2021/09/01 06:41:31;;;;;;;;;;;;;;;17.39;100.00;100153.13;4993655;28;19921;-79
2021/09/01 06:43:56;;;;;;;;;;;;;;;16.81;100.00;100155.47;4993994;28;19914;-80
2021/09/01 06:46:22;;;;;;;;;;;;;;;17.55;100.00;100156.78;5012091;28;20004;-80
2021/09/01 06:48:47;;;;;;;;;;;;;;;17.29;100.00;100157.03;4994540;28;19918;-77
2021/09/01 06:51:12;;;;;;;;;;;;;;;16.93;100.00;100165.41;4994531;28;19929;-79
2021/09/01 06:53:38;;;;;;;;;;;;;;;16.94;100.00;100167.09;4995242;28;19922;-79
2021/09/01 06:56:05;;;;;;;;;;;;;;;16.43;100.00;100175.97;4995083;28;19926;-78
2021/09/01 06:58:30;;;;;;;;;;;;;;;16.85;100.00;100180.47;4993509;28;19923;-77
2021/09/01 07:00:55;;;;;;;;;;;;;;;16.43;100.00;100174.22;4994678;28;19913;-78
2021/09/01 07:03:20;;;;;;;;;;;;;;;16.97;100.00;100180.00;4989654;28;20072;-78
2021/09/01 07:05:46;;;;;;;;;;;;;;;17.31;100.00;100178.63;4993605;28;19923;-78
2021/09/01 07:08:11;;;;;;;;;;;;;;;16.90;100.00;100186.34;4993533;28;20297;-78
2021/09/01 07:10:37;;;;;;;;;;;;;;;16.90;100.00;100188.94;4997184;28;19917;-78
2021/09/01 07:13:02;;;;;;;;;;;;;;;17.05;100.00;100196.16;4998681;28;19921;-77
2021/09/01 07:15:28;;;;;;;;;;;;;;;17.45;100.00;100188.50;4995067;28;20448;-78
2021/09/01 07:17:53;;;;;;;;;;;;;;;18.13;100.00;100184.72;5011335;28;19924;-78
2021/09/01 07:20:21;;;;;;;;;;;;;;;17.77;100.00;100184.53;4997187;28;20032;-78
2021/09/01 07:22:46;;;;;;;;;;;;;;;16.76;100.00;100196.41;4998973;28;19932;-78
2021/09/01 07:25:11;;;;;;;;;;;;;;;17.27;100.00;100190.09;5004357;28;19937;-79
2021/09/01 07:27:37;;;;;;;;;;;;;;;17.23;100.00;100193.72;4997376;28;19918;-79
2021/09/01 07:30:03;;;;;;;;;;;;;;;17.27;100.00;100201.34;4993020;28;19914;-77
2021/09/01 07:32:28;;;;;;;;;;;;;;;17.34;100.00;100196.75;4996401;28;20945;-77
2021/09/01 07:34:54;;;;;;;;;;;;;;;17.17;100.00;100204.38;4993315;28;20374;-78
2021/09/01 07:37:19;;;;;;;;;;;;;;;17.38;100.00;100203.53;4994862;28;19924;-77
2021/09/01 07:39:44;;;;;;;;;;;;;;;16.99;100.00;100208.56;4991867;28;20333;-77
2021/09/01 07:42:09;;;;;;;;;;;;;;;17.06;100.00;100218.69;4996260;28;19929;-77
2021/09/01 07:44:35;;;;;;;;;;;;;;;17.28;100.00;100210.00;5002177;28;19933;-77
2021/09/01 07:47:00;;;;;;;;;;;;;;;17.26;100.00;100214.41;4995825;28;20922;-77
2021/09/01 07:49:25;;;;;;;;;;;;;;;17.18;100.00;100208.69;4995385;28;19918;-77
2021/09/01 07:51:51;;;;;;;;;;;;;;;17.92;100.00;100209.94;4993648;28;20425;-76
2021/09/01 07:54:16;;;;;;;;;;;;;;;18.11;100.00;100203.94;4993958;28;19917;-76
2021/09/01 07:56:41;;;;;;;;;;;;;;;16.84;100.00;100212.63;5002957;28;19948;-77
2021/09/01 07:59:07;;;;;;;;;;;;;;;17.39;100.00;100220.84;4995538;28;19976;-77
2021/09/01 08:01:32;;;;;;;;;;;;;;;17.86;100.00;100219.78;5011733;28;19917;-79
2021/09/01 08:03:57;;;;;;;;;;;;;;;17.39;100.00;100231.25;4994449;28;19953;-77
2021/09/01 08:06:23;;;;;;;;;;;;;;;17.45;100.00;100231.00;4994342;28;19917;-77
2021/09/01 08:08:48;;;;;;;;;;;;;;;17.24;100.00;100231.84;4994069;28;20004;-77
2021/09/01 08:11:13;;;;;;;;;;;;;;;18.08;100.00;100235.38;4995295;28;19977;-77
2021/09/01 08:13:39;;;;;;;;;;;;;;;17.98;100.00;100240.13;4994202;28;19926;-77
2021/09/01 08:16:05;;;;;;;;;;;;;;;17.97;100.00;100233.22;4993331;28;19957;-76
2021/09/01 08:18:30;;;;;;;;;;;;;;;19.32;100.00;100226.25;4995402;28;19922;-77
2021/09/01 08:20:55;;;;;;;;;;;;;;;18.32;100.00;100238.69;4993812;28;20745;-77
2021/09/01 08:23:21;;;;;;;;;;;;;;;17.67;100.00;100243.13;4995330;28;19987;-77
2021/09/01 08:25:46;;;;;;;;;;;;;;;17.47;100.00;100243.94;5000815;28;19918;-77
2021/09/01 08:28:11;;;;;;;;;;;;;;;17.28;100.00;100249.06;4995593;28;19940;-77
2021/09/01 08:30:37;;;;;;;;;;;;;;;17.94;100.00;100254.19;4993007;28;19957;-77
2021/09/01 08:33:02;;;;;;;;;;;;;;;18.63;100.00;100256.38;4995346;28;19917;-77
2021/09/01 08:35:27;;;;;;;;;;;;;;;18.74;100.00;100254.13;4993241;28;19922;-77
2021/09/01 08:37:53;;;;;;;;;;;;;;;17.60;100.00;100265.16;4993660;28;19918;-77
2021/09/01 08:40:18;;;;;;;;;;;;;;;18.29;100.00;100263.13;5000381;28;19929;-77
2021/09/01 08:42:43;;;;;;;;;;;;;;;17.68;100.00;100252.66;4997535;28;19922;-77
2021/09/01 08:45:09;;;;;;;;;;;;;;;19.07;100.00;100258.75;4992887;28;20012;-77
2021/09/01 08:47:38;;;;;;;;;;;;;;;19.07;100.00;100256.16;4994109;28;20828;-77
2021/09/01 08:50:05;;;;;;;;;;;;;;;19.36;100.00;100249.53;4993815;28;20763;-77
2021/09/01 08:52:30;;;;;;;;;;;;;;;18.19;100.00;100248.78;4995320;28;19921;-76
2021/09/01 08:54:55;;;;;;;;;;;;;;;18.01;100.00;100244.38;4993339;28;20308;-77
2021/09/01 08:57:21;;;;;;;;;;;;;;;19.39;100.00;100241.56;4993572;28;20004;-76
2021/09/01 08:59:46;;;;;;;;;;;;;;;19.88;100.00;100235.66;4994263;28;19917;-77
2021/09/01 09:02:11;;;;;;;;;;;;;;;19.70;100.00;100231.38;4994531;28;19944;-77
2021/09/01 09:04:38;;;;;;;;;;;;;;;19.52;100.00;100235.72;4994581;28;19921;-77
2021/09/01 09:07:07;;;;;;;;;;;;;;;20.00;100.00;100235.06;5006937;28;19956;-77
2021/09/01 09:09:34;;;;;;;;;;;;;;;18.88;100.00;100240.47;4992318;28;20016;-76
2021/09/01 09:12:01;;;;;;;;;;;;;;;18.83;100.00;100244.25;4994222;28;19946;-77
2021/09/01 09:14:30;;;;;;;;;;;;;;;19.59;100.00;100240.56;4993163;28;19979;-77
2021/09/01 09:16:58;;;;;;;;;;;;;;;19.42;100.00;100243.16;5006365;28;19917;-77
2021/09/01 09:19:40;;;;;;;;;;;;;;;19.36;100.00;100243.44;4994716;28;20378;-76
2021/09/01 09:22:05;;;;;;;;;;;;;;;19.22;100.00;100257.19;4992527;28;19918;-76
2021/09/01 09:24:33;;;;;;;;;;;;;;;19.59;100.00;100245.81;4991015;28;19925;-77
2021/09/01 09:26:58;;;;;;;;;;;;;;;20.00;100.00;100249.88;4993007;28;19928;-77
2021/09/01 09:29:24;;;;;;;;;;;;;;;19.69;100.00;100250.59;4992454;28;19917;-77
2021/09/01 09:32:03;;;;;;;;;;;;;;;20.48;100.00;100246.50;4990097;28;19928;-77
2021/09/01 09:34:58;;;;;;;;;;;;;;;18.98;100.00;100253.97;5004357;28;20069;-77
2021/09/01 09:37:23;;;;;;;;;;;;;;;19.35;100.00;100252.22;4992311;28;20285;-76
2021/09/01 09:39:49;;;;;;;;;;;;;;;19.78;100.00;100247.53;4999387;28;19918;-76
2021/09/01 09:42:28;;;;;;;;;;;;;;;19.50;100.00;100241.03;4990892;28;19921;-76
2021/09/01 09:44:54;;;;;;;;;;;;;;;20.55;100.00;100246.16;4991613;28;20476;-77
2021/09/01 09:47:19;;;;;;;;;;;;;;;21.30;100.00;100239.44;4991012;28;19972;-77
2021/09/01 09:49:45;;;;;;;;;;;;;;;21.30;100.00;100236.81;4994931;28;19928;-77
2021/09/01 09:52:14;;;;;;;;;;;;;;;20.90;100.00;100239.06;4990119;28;20377;-76
2021/09/01 09:54:39;;;;;;;;;;;;;;;20.72;100.00;100240.91;4990441;28;19968;-77
2021/09/01 09:57:05;;;;;;;;;;;;;;;20.42;100.00;100246.81;4997628;28;19918;-76
2021/09/01 09:59:32;;;;;;;;;;;;;;;20.47;100.00;100247.41;5007350;28;19913;-77
2021/09/01 10:01:57;;;;;;;;;;;;;;;21.15;100.00;100242.94;4990581;28;20412;-76
2021/09/01 10:04:22;;;;;;;;;;;;;;;20.76;100.00;100245.03;4988559;28;19921;-77
2021/09/01 10:06:48;;;;;;;;;;;;;;;20.67;100.00;100241.16;4991176;28;19937;-76
2021/09/01 10:09:13;;;;;;;;;;;;;;;20.70;100.00;100237.53;4991607;28;19918;-77
2021/09/01 10:11:39;;;;;;;;;;;;;;;19.65;100.00;100235.03;4999969;28;19921;-77
2021/09/01 10:14:04;;;;;;;;;;;;;;;20.15;100.00;100230.78;4988260;28;19988;-77
2021/09/01 10:16:31;;;;;;;;;;;;;;;20.73;100.00;100226.88;5000141;28;20002;-77
2021/09/01 10:18:56;;;;;;;;;;;;;;;19.40;100.00;100235.38;4989591;28;19921;-77
2021/09/01 10:21:25;;;;;;;;;;;;;;;19.28;100.00;100233.38;4992881;28;20327;-76
2021/09/01 10:23:50;;;;;;;;;;;;;;;19.95;100.00;100229.19;4993126;28;19917;-77
2021/09/01 10:26:20;;;;;;;;;;;;;;;19.62;100.00;100229.13;4992511;28;19917;-77
2021/09/01 10:28:45;;;;;;;;;;;;;;;20.00;100.00;100237.69;4989929;28;20439;-77
2021/09/01 10:31:13;;;;;;;;;;;;;;;20.29;100.00;100235.31;4989474;28;19924;-77
2021/09/01 10:33:42;;;;;;;;;;;;;;;20.34;100.00;100233.28;5006812;28;19918;-77
2021/09/01 10:36:22;;;;;;;;;;;;;;;19.94;100.00;100237.97;4991539;28;19914;-77
2021/09/01 10:38:48;;;;;;;;;;;;;;;19.04;100.00;100245.84;4991367;28;19940;-76
2021/09/01 10:41:13;;;;;;;;;;;;;;;19.40;100.00;100245.00;4990663;28;19917;-77
2021/09/01 10:43:38;;;;;;;;;;;;;;;18.93;100.00;100248.09;4989705;28;19983;-77
2021/09/01 10:46:04;;;;;;;;;;;;;;;19.36;100.00;100241.72;4990574;28;19952;-77
2021/09/01 10:48:29;;;;;;;;;;;;;;;18.62;100.00;100244.28;4997889;28;19922;-77
2021/09/01 10:50:55;;;;;;;;;;;;;;;19.31;100.00;100246.28;4990173;28;20024;-76
2021/09/01 10:53:22;;;;;;;;;;;;;;;19.85;100.00;100238.44;4989043;28;20011;-76
2021/09/01 10:55:51;;;;;;;;;;;;;;;19.66;100.00;100246.34;4992630;28;19940;-76
2021/09/01 10:58:35;;;;;;;;;;;;;;;19.35;100.00;100244.38;4993642;28;20580;-76
2021/09/01 11:01:00;;;;;;;;;;;;;;;20.08;100.00;100233.81;4993339;28;19914;-77
2021/09/01 11:03:25;;;;;;;;;;;;;;;18.59;100.00;100239.19;5006400;28;19921;-76
2021/09/01 11:05:51;;;;;;;;;;;;;;;18.99;100.00;100240.81;4993787;28;20892;-77
2021/09/01 11:08:17;;;;;;;;;;;;;;;18.63;100.00;100235.50;4990961;28;19925;-77
2021/09/01 11:10:58;;;;;;;;;;;;;;;19.28;100.00;100230.78;4998997;28;20013;-76
2021/09/01 11:13:42;;;;;;;;;;;;;;;20.65;100.00;100226.47;5000164;28;19918;-77
2021/09/01 11:16:20;;;;;;;;;;;;;;;20.59;100.00;100226.78;4990347;28;19969;-77
2021/09/01 11:18:59;;;;;;;;;;;;;;;20.34;100.00;100228.06;4991264;28;19922;-77
2021/09/01 11:21:24;;;;;;;;;;;;;;;20.26;100.00;100219.78;4992123;28;19930;-77
2021/09/01 11:23:49;;;;;;;;;;;;;;;20.24;100.00;100221.63;4991569;28;19997;-76
2021/09/01 11:26:16;;;;;;;;;;;;;;;20.66;100.00;100212.44;4990184;28;19919;-76
2021/09/01 11:28:42;;;;;;;;;;;;;;;21.04;100.00;100217.34;4993639;28;20744;-77
2021/09/01 11:31:20;;;;;;;;;;;;;;;19.47;100.00;100225.50;4990068;28;19921;-76
2021/09/01 11:33:45;;;;;;;;;;;;;;;18.95;100.00;100225.38;4990348;28;19917;-76
2021/09/01 11:36:11;;;;;;;;;;;;;;;21.41;100.00;100210.03;4991005;28;19924;-75
2021/09/01 11:38:45;;;;;;;;;;;;;;;20.13;100.00;100213.50;4989747;28;20006;-76
2021/09/01 11:41:11;;;;;;;;;;;;;;;20.22;100.00;100213.00;4992500;28;19917;-76
2021/09/01 11:43:36;;;;;;;;;;;;;;;19.91;100.00;100219.84;4993515;28;19940;-76
2021/09/01 11:46:01;;;;;;;;;;;;;;;20.06;100.00;100213.81;4992826;28;19945;-77
2021/09/01 11:48:37;;;;;;;;;;;;;;;19.65;100.00;100215.91;4991305;28;19918;-76
2021/09/01 11:51:02;;;;;;;;;;;;;;;20.62;100.00;100216.16;4989549;28;19917;-76
2021/09/01 11:53:28;;;;;;;;;;;;;;;20.87;100.00;100211.28;4991582;28;19931;-76
2021/09/01 11:55:53;;;;;;;;;;;;;;;20.56;100.00;100211.22;4989940;28;19918;-76
2021/09/01 11:58:19;;;;;;;;;;;;;;;20.18;100.00;100211.47;4994273;28;19937;-76
2021/09/01 12:00:45;;;;;;;;;;;;;;;21.55;100.00;100217.94;4992901;28;19914;-76
2021/09/01 12:03:11;;;;;;;;;;;;;;;20.95;100.00;100215.22;4994732;28;19925;-76
2021/09/01 12:05:36;;;;;;;;;;;;;;;20.88;100.00;100218.19;4995352;28;19949;-76
2021/09/01 12:08:02;;;;;;;;;;;;;;;22.93;100.00;100212.16;4992323;28;19925;-76
2021/09/01 12:10:29;;;;;;;;;;;;;;;21.35;100.00;100215.59;4994239;28;19993;-76
2021/09/01 12:13:01;;;;;;;;;;;;;;;23.02;100.00;100208.13;4995681;28;20004;-76
2021/09/01 12:15:27;;;;;;;;;;;;;;;23.64;100.00;100202.31;4994135;28;19928;-76
2021/09/01 12:17:59;;;;;;;;;;;;;;;21.11;100.00;100213.44;5000761;28;19917;-76
2021/09/01 12:20:25;;;;;;;;;;;;;;;21.21;100.00;100208.50;4992810;28;19957;-76
2021/09/01 12:22:50;;;;;;;;;;;;;;;21.56;100.00;100214.41;4992355;28;19965;-76